Time;durP1;ratioP1;P1;durP2;ratioP2;P2;SDS_P1;SDS_P2;PMS_P1;PMS_P2;Temp;Humidity;BMP_temperature;BMP_pressure;BME280_temperature;BME280_humidity;BME280_pressure;Samples;Min_cycle;Max_cycle;Signal;HPM_P1;HPM_P2
2021/08/16 00:00:19;;;;;;;5.30;4.70;;;;;;;20.58;54.54;100354.22;694620;28;44336;-66
2021/08/16 00:00:43;;;;;;;5.28;4.78;;;;;;;20.57;54.52;100355.31;696113;28;1300;-67
2021/08/16 00:01:04;;;;;;;5.07;4.63;;;;;;;20.57;54.50;100350.66;693387;28;78828;-65
2021/08/16 00:01:26;;;;;;;5.00;4.55;;;;;;;20.55;54.57;100351.97;695148;28;21540;-67
2021/08/16 00:01:47;;;;;;;5.43;4.55;;;;;;;20.57;54.46;100355.31;693787;28;44394;-65
2021/08/16 00:02:08;;;;;;;6.70;4.50;;;;;;;20.56;54.49;100357.22;694888;28;22392;-65
2021/08/16 00:02:29;;;;;;;7.57;4.40;;;;;;;20.54;54.38;100353.91;694508;28;23491;-67
2021/08/16 00:02:51;;;;;;;7.38;4.45;;;;;;;20.51;54.38;100344.25;696290;28;1295;-67
2021/08/16 00:03:12;;;;;;;7.70;4.65;;;;;;;20.51;54.54;100348.94;694784;28;44407;-67
2021/08/16 00:03:33;;;;;;;6.55;4.50;;;;;;;20.51;54.58;100340.69;695413;28;21314;-66
2021/08/16 00:03:55;;;;;;;7.65;5.05;;;;;;;20.49;54.49;100346.44;695622;28;21384;-67
2021/08/16 00:04:16;;;;;;;5.30;4.75;;;;;;;20.48;54.42;100343.94;694589;28;45949;-67
2021/08/16 00:04:37;;;;;;;7.60;4.50;;;;;;;20.46;54.50;100341.44;695274;28;21602;-66
2021/08/16 00:04:59;;;;;;;6.53;4.45;;;;;;;20.44;54.49;100346.38;695081;28;21485;-66
2021/08/16 00:05:21;;;;;;;5.45;4.50;;;;;;;20.43;54.56;100343.88;694693;28;23456;-67
2021/08/16 00:05:42;;;;;;;5.22;4.25;;;;;;;20.41;54.67;100348.78;694338;28;45268;-64
2021/08/16 00:06:03;;;;;;;7.57;4.43;;;;;;;20.39;54.72;100351.78;695281;28;23452;-67
2021/08/16 00:06:25;;;;;;;8.13;4.35;;;;;;;20.38;54.84;100341.88;695525;28;17925;-67
2021/08/16 00:06:47;;;;;;;5.50;4.40;;;;;;;20.37;54.91;100342.13;693491;28;65062;-67
2021/08/16 00:07:08;;;;;;;5.70;4.50;;;;;;;20.38;54.94;100349.28;694575;28;47558;-67
2021/08/16 00:07:30;;;;;;;5.55;4.50;;;;;;;20.37;54.90;100347.63;695264;28;23178;-67
2021/08/16 00:07:52;;;;;;;6.85;4.45;;;;;;;20.37;55.00;100347.63;694814;28;22368;-67
2021/08/16 00:08:13;;;;;;;5.28;4.20;;;;;;;20.36;54.96;100349.56;693734;28;44396;-67
2021/08/16 00:08:34;;;;;;;5.47;4.50;;;;;;;20.35;54.91;100343.22;695012;28;22232;-67
2021/08/16 00:08:55;;;;;;;7.32;4.72;;;;;;;20.37;55.04;100347.63;695459;28;21515;-68
2021/08/16 00:09:17;;;;;;;5.88;4.18;;;;;;;20.35;55.03;100347.88;695229;28;21730;-67
2021/08/16 00:09:38;;;;;;;5.63;4.32;;;;;;;20.37;54.96;100342.97;694677;28;46116;-66
2021/08/16 00:09:59;;;;;;;6.07;4.60;;;;;;;20.38;54.96;100343.81;695534;28;22399;-67
2021/08/16 00:10:20;;;;;;;5.10;4.60;;;;;;;20.38;54.76;100352.03;696162;28;1748;-67
2021/08/16 00:10:41;;;;;;;5.95;4.72;;;;;;;20.37;54.91;100340.22;694941;28;22400;-67
2021/08/16 00:11:04;;;;;;;5.20;4.47;;;;;;;20.36;55.10;100346.81;695756;28;16971;-67
2021/08/16 00:11:25;;;;;;;4.90;4.43;;;;;;;20.37;55.00;100348.44;693752;28;69441;-67
2021/08/16 00:11:46;;;;;;;5.63;4.70;;;;;;;20.38;55.09;100343.81;694859;28;22399;-67
2021/08/16 00:12:07;;;;;;;5.22;4.70;;;;;;;20.39;54.95;100345.44;695170;28;22392;-66
2021/08/16 00:12:29;;;;;;;4.78;4.32;;;;;;;20.37;55.08;100345.69;695449;28;22431;-67
2021/08/16 00:12:50;;;;;;;5.28;4.35;;;;;;;20.37;55.03;100347.63;694711;28;46277;-67
2021/08/16 00:13:11;;;;;;;5.80;4.53;;;;;;;20.39;55.07;100345.44;695565;28;23457;-67
2021/08/16 00:13:32;;;;;;;6.20;4.40;;;;;;;20.39;55.03;100342.72;695784;28;1427;-67
2021/08/16 00:13:55;;;;;;;5.82;4.32;;;;;;;20.38;55.17;100339.16;695967;28;15901;-66
2021/08/16 00:14:16;;;;;;;6.72;4.75;;;;;;;20.40;55.33;100347.13;694501;28;48419;-65
2021/08/16 00:14:37;;;;;;;7.30;4.68;;;;;;;20.39;54.94;100339.97;695326;28;22429;-67
2021/08/16 00:14:58;;;;;;;5.90;4.28;;;;;;;20.40;54.96;100338.91;695917;28;21534;-67
2021/08/16 00:15:20;;;;;;;5.20;4.35;;;;;;;20.40;54.93;100342.47;694817;28;21280;-67
2021/08/16 00:15:41;;;;;;;5.50;4.55;;;;;;;20.40;54.91;100342.47;694089;28;46585;-66
2021/08/16 00:16:02;;;;;;;5.35;4.60;;;;;;;20.40;54.63;100336.16;694548;28;23293;-67
2021/08/16 00:16:24;;;;;;;4.78;4.25;;;;;;;20.39;54.58;100339.97;694206;28;46597;-67
2021/08/16 00:16:46;;;;;;;4.90;4.25;;;;;;;20.40;54.64;100336.97;695304;28;22367;-67
2021/08/16 00:17:07;;;;;;;4.97;4.40;;;;;;;20.40;54.45;100338.91;694602;28;42742;-64
2021/08/16 00:17:28;;;;;;;5.80;4.32;;;;;;;20.39;54.50;100340.81;694977;28;20926;-63
2021/08/16 00:17:49;;;;;;;5.85;4.60;;;;;;;20.39;54.74;100338.06;694055;28;22408;-67
2021/08/16 00:18:11;;;;;;;5.60;4.45;;;;;;;20.37;54.70;100333.91;695385;28;21498;-65
2021/08/16 00:18:33;;;;;;;4.68;4.25;;;;;;;20.36;54.87;100327.59;693978;28;42000;-66
2021/08/16 00:18:54;;;;;;;6.70;4.45;;;;;;;20.37;54.96;100337.47;693315;28;1136;-66
2021/08/16 00:19:16;;;;;;;6.20;4.47;;;;;;;20.36;54.82;100327.59;692624;28;11120;-66
2021/08/16 00:19:37;;;;;;;5.30;4.45;;;;;;;20.34;54.75;100329.75;694755;28;43275;-67
2021/08/16 00:19:58;;;;;;;4.97;4.47;;;;;;;20.36;54.78;100333.09;695635;28;18926;-67
2021/08/16 00:20:19;;;;;;;6.32;4.72;;;;;;;20.36;54.88;100327.59;695057;28;22412;-67
2021/08/16 00:20:41;;;;;;;5.35;4.57;;;;;;;20.33;54.85;100328.09;695042;28;22705;-66
2021/08/16 00:21:03;;;;;;;5.18;4.68;;;;;;;20.32;54.81;100324.53;693945;28;46322;-66
2021/08/16 00:21:25;;;;;;;8.52;4.75;;;;;;;20.32;54.79;100323.69;694475;28;45319;-65
2021/08/16 00:21:46;;;;;;;8.15;4.70;;;;;;;20.35;55.05;100328.69;691245;28;46402;-66
2021/08/16 00:22:08;;;;;;;5.82;4.30;;;;;;;20.36;54.92;100327.59;692261;28;24417;-66
2021/08/16 00:22:29;;;;;;;5.10;4.45;;;;;;;20.35;54.94;100328.69;691491;28;47735;-66
2021/08/16 00:22:50;;;;;;;5.97;4.75;;;;;;;20.36;54.96;100322.13;693146;28;21514;-67
2021/08/16 00:23:11;;;;;;;7.65;4.80;;;;;;;20.34;55.05;100316.88;694255;28;7745;-66
2021/08/16 00:23:33;;;;;;;6.55;4.35;;;;;;;20.38;54.84;100330.09;694162;28;23234;-66
2021/08/16 00:23:54;;;;;;;5.13;4.32;;;;;;;20.35;54.70;100326.75;694739;28;46423;-66
2021/08/16 00:24:16;;;;;;;5.80;4.50;;;;;;;20.35;54.54;100332.25;695992;28;2001;-67
2021/08/16 00:24:37;;;;;;;5.15;4.38;;;;;;;20.33;54.46;100323.44;691201;28;26246;-67
2021/08/16 00:24:59;;;;;;;5.85;4.30;;;;;;;20.32;54.44;100324.53;692688;28;22382;-66
2021/08/16 00:25:21;;;;;;;5.67;4.27;;;;;;;20.30;54.55;100326.69;691363;28;45844;-65
2021/08/16 00:25:42;;;;;;;4.50;4.07;;;;;;;20.31;54.56;100333.84;691358;28;44475;-67
2021/08/16 00:26:04;;;;;;;4.65;4.25;;;;;;;20.29;54.49;100324.19;692632;28;22168;-67
2021/08/16 00:26:25;;;;;;;4.88;4.28;;;;;;;20.30;54.56;100328.63;695180;28;32526;-67
2021/08/16 00:26:46;;;;;;;5.20;4.05;;;;;;;20.29;54.31;100321.47;695230;28;21537;-67
2021/08/16 00:27:08;;;;;;;4.38;3.97;;;;;;;20.28;54.38;100326.13;695862;28;18666;-65
2021/08/16 00:27:30;;;;;;;5.00;3.95;;;;;;;20.27;54.43;100326.38;694511;28;44367;-65
2021/08/16 00:27:51;;;;;;;5.00;4.35;;;;;;;20.23;54.51;100317.81;694058;28;45261;-68
2021/08/16 00:28:12;;;;;;;6.15;4.22;;;;;;;20.21;54.44;100319.97;695501;28;23800;-65
2021/08/16 00:28:34;;;;;;;7.18;4.47;;;;;;;20.24;54.50;100318.66;694442;28;22408;-66
2021/08/16 00:28:59;;;;;;;8.40;4.45;;;;;;;20.22;54.73;100321.66;694549;28;44336;-67
2021/08/16 00:29:20;;;;;;;6.18;4.15;;;;;;;20.21;54.70;100319.97;689621;28;107743;-66
2021/08/16 00:29:41;;;;;;;5.97;4.47;;;;;;;20.20;54.95;100317.47;692688;28;17908;-66
2021/08/16 00:30:04;;;;;;;5.80;4.45;;;;;;;20.20;55.01;100314.75;692986;28;6833;-65
2021/08/16 00:30:25;;;;;;;5.03;4.53;;;;;;;20.17;55.11;100319.66;692222;28;68345;-67
2021/08/16 00:30:46;;;;;;;6.57;4.60;;;;;;;20.16;54.88;100317.97;694888;28;21525;-67
2021/08/16 00:31:07;;;;;;;6.47;4.25;;;;;;;20.17;54.78;100316.91;695324;28;24338;-66
2021/08/16 00:31:29;;;;;;;6.03;4.15;;;;;;;20.17;54.61;100310.56;695632;28;22507;-67
2021/08/16 00:31:50;;;;;;;4.88;4.28;;;;;;;20.19;54.40;100305.69;694375;28;32032;-66
2021/08/16 00:32:12;;;;;;;4.47;3.90;;;;;;;20.20;54.14;100315.56;694852;28;21550;-67
2021/08/16 00:32:33;;;;;;;4.10;3.70;;;;;;;20.20;53.97;100303.78;695348;28;23624;-67
2021/08/16 00:32:55;;;;;;;4.40;3.97;;;;;;;20.20;53.97;100304.59;695431;28;23340;-67
2021/08/16 00:33:16;;;;;;;4.78;4.00;;;;;;;20.20;54.29;100301.84;695315;28;15763;-67
2021/08/16 00:33:37;;;;;;;4.28;3.80;;;;;;;20.19;54.74;100302.94;694862;28;20913;-66
2021/08/16 00:33:58;;;;;;;5.47;4.25;;;;;;;20.19;54.82;100302.09;694932;28;34278;-65
2021/08/16 00:34:20;;;;;;;7.03;4.30;;;;;;;20.19;54.68;100300.22;694946;28;23468;-67
2021/08/16 00:34:41;;;;;;;6.35;4.10;;;;;;;20.19;54.86;100304.84;694392;28;45413;-67
2021/08/16 00:35:03;;;;;;;6.95;4.20;;;;;;;20.17;54.91;100305.94;694809;28;21570;-66
2021/08/16 00:35:25;;;;;;;6.30;4.20;;;;;;;20.15;55.06;100299.88;693288;28;45261;-67
2021/08/16 00:35:46;;;;;;;6.25;3.97;;;;;;;20.16;54.97;100301.53;692943;28;46189;-67
2021/08/16 00:36:08;;;;;;;4.93;4.03;;;;;;;20.15;54.87;100297.13;695184;28;22188;-66
2021/08/16 00:36:30;;;;;;;4.30;3.90;;;;;;;20.15;54.73;100301.78;695187;28;23445;-67
2021/08/16 00:36:52;;;;;;;5.50;3.95;;;;;;;20.12;54.67;100299.53;693543;28;70220;-67
2021/08/16 00:37:13;;;;;;;6.45;4.30;;;;;;;20.13;54.56;100302.03;692912;28;45244;-67
2021/08/16 00:37:35;;;;;;;6.40;4.10;;;;;;;20.13;55.02;100302.03;694291;28;23489;-65
2021/08/16 00:37:56;;;;;;;6.03;4.20;;;;;;;20.14;54.72;100303.72;694069;28;22370;-67
2021/08/16 00:38:18;;;;;;;5.10;4.15;;;;;;;20.12;54.83;100294.06;694024;28;22390;-66
2021/08/16 00:38:39;;;;;;;4.82;4.20;;;;;;;20.13;55.01;100296.56;694229;28;47243;-66
2021/08/16 00:39:00;;;;;;;4.75;4.03;;;;;;;20.13;55.10;100298.47;694725;28;22362;-66
2021/08/16 00:39:21;;;;;;;4.55;4.10;;;;;;;20.12;55.10;100300.38;695161;28;23349;-66
2021/08/16 00:39:42;;;;;;;5.05;4.05;;;;;;;20.14;55.09;100302.84;695622;28;22063;-67
2021/08/16 00:40:05;;;;;;;6.10;4.20;;;;;;;20.13;55.34;100301.22;695504;28;22331;-66
2021/08/16 00:40:26;;;;;;;6.63;4.50;;;;;;;20.13;55.30;100304.78;692997;28;69523;-65
2021/08/16 00:40:47;;;;;;;4.80;4.38;;;;;;;20.13;55.44;100302.03;694349;28;17791;-66
2021/08/16 00:41:08;;;;;;;6.20;4.28;;;;;;;20.15;55.44;100304.53;695320;28;16708;-67
2021/08/16 00:41:31;;;;;;;6.45;4.15;;;;;;;20.16;55.29;100300.72;695285;28;22116;-67
2021/08/16 00:41:52;;;;;;;5.60;4.20;;;;;;;20.14;55.12;100298.22;693878;28;69476;-66
2021/08/16 00:42:13;;;;;;;5.18;4.13;;;;;;;20.16;55.10;100293.31;695454;28;22443;-67
2021/08/16 00:42:35;;;;;;;6.63;4.45;;;;;;;20.14;54.92;100291.88;695288;28;21528;-67
2021/08/16 00:42:57;;;;;;;5.47;4.10;;;;;;;20.16;55.11;100296.06;695227;28;22400;-66
2021/08/16 00:43:18;;;;;;;4.70;4.18;;;;;;;20.16;54.92;100296.06;693987;28;44421;-66
2021/08/16 00:43:39;;;;;;;5.55;4.22;;;;;;;20.16;54.96;100292.50;695560;28;22405;-64
2021/08/16 00:44:00;;;;;;;4.60;3.97;;;;;;;20.16;55.12;100293.31;694430;28;45255;-66
2021/08/16 00:44:23;;;;;;;4.35;3.95;;;;;;;20.13;54.74;100285.59;695351;28;23562;-66
2021/08/16 00:44:44;;;;;;;4.55;4.15;;;;;;;20.14;54.58;100290.00;694447;28;44383;-66
2021/08/16 00:45:07;;;;;;;5.25;4.25;;;;;;;20.14;54.77;100286.41;695476;28;13516;-66
2021/08/16 00:45:29;;;;;;;5.38;4.00;;;;;;;20.12;54.81;100280.34;692560;28;92927;-67
2021/08/16 00:45:52;;;;;;;5.63;4.00;;;;;;;20.12;54.81;100285.84;694965;28;22490;-67
2021/08/16 00:46:13;;;;;;;4.22;3.92;;;;;;;20.11;54.82;100285.03;692812;28;86948;-66
2021/08/16 00:46:35;;;;;;;4.20;3.80;;;;;;;20.11;54.77;100287.75;695595;28;22419;-67
2021/08/16 00:46:56;;;;;;;4.90;3.92;;;;;;;20.10;54.84;100291.56;695068;28;22206;-67
2021/08/16 00:47:19;;;;;;;5.70;4.00;;;;;;;20.09;54.85;100281.69;695431;28;22353;-66
2021/08/16 00:47:41;;;;;;;4.90;4.20;;;;;;;20.10;55.05;100290.75;691876;28;67510;-63
2021/08/16 00:48:02;;;;;;;5.10;4.10;;;;;;;20.09;54.99;100286.34;693908;28;45257;-67
2021/08/16 00:48:24;;;;;;;4.55;4.10;;;;;;;20.07;55.12;100278.38;694520;28;46810;-67
2021/08/16 00:48:46;;;;;;;5.35;4.00;;;;;;;20.08;55.19;100281.97;695515;28;23414;-67
2021/08/16 00:49:08;;;;;;;5.65;4.20;;;;;;;20.06;55.26;100287.69;695044;28;16187;-67
2021/08/16 00:49:29;;;;;;;7.68;4.35;;;;;;;20.05;55.26;100286.03;694481;28;46401;-66
2021/08/16 00:49:50;;;;;;;6.27;4.60;;;;;;;20.05;55.49;100286.03;695909;28;1333;-67
2021/08/16 00:50:14;;;;;;;4.93;4.43;;;;;;;20.05;55.44;100285.19;696053;28;999;-67
2021/08/16 00:50:36;;;;;;;4.82;3.90;;;;;;;20.04;55.60;100283.53;693709;28;68321;-67
2021/08/16 00:50:58;;;;;;;4.95;4.07;;;;;;;20.03;55.69;100281.84;696115;28;1472;-67
2021/08/16 00:51:19;;;;;;;4.72;4.00;;;;;;;20.02;55.77;100281.03;695164;28;27080;-67
2021/08/16 00:51:44;;;;;;;4.35;3.92;;;;;;;20.01;55.96;100279.38;695697;28;10799;-67
2021/08/16 00:52:06;;;;;;;4.65;4.18;;;;;;;19.99;55.94;100282.34;692003;28;115011;-67
2021/08/16 00:52:27;;;;;;;4.68;3.92;;;;;;;19.98;55.99;100274.38;694253;28;37651;-66
2021/08/16 00:52:50;;;;;;;5.32;4.10;;;;;;;19.95;56.02;100273.00;695427;28;22554;-67
2021/08/16 00:53:13;;;;;;;5.03;4.10;;;;;;;19.96;56.12;100279.31;693559;28;69781;-67
2021/08/16 00:53:34;;;;;;;5.55;4.30;;;;;;;19.95;56.13;100281.22;693901;28;69479;-67
2021/08/16 00:53:56;;;;;;;6.82;4.05;;;;;;;19.93;55.92;100277.88;696190;28;1784;-67
2021/08/16 00:54:18;;;;;;;7.10;4.25;;;;;;;19.93;55.92;100277.88;694737;28;23406;-66
2021/08/16 00:54:39;;;;;;;6.00;4.20;;;;;;;19.91;55.82;100277.31;694114;28;46345;-66
2021/08/16 00:55:00;;;;;;;5.45;4.35;;;;;;;19.92;55.99;100278.97;695574;28;17979;-67
2021/08/16 00:55:22;;;;;;;4.78;4.13;;;;;;;19.90;55.66;100278.38;696182;28;1336;-67
2021/08/16 00:55:44;;;;;;;4.78;4.18;;;;;;;19.91;55.64;100279.22;694800;28;23773;-66
2021/08/16 00:56:07;;;;;;;5.15;3.97;;;;;;;19.88;55.66;100275.06;693815;28;44392;-66
2021/08/16 00:56:28;;;;;;;6.15;4.32;;;;;;;19.89;55.78;100275.88;694070;28;46324;-66
2021/08/16 00:56:49;;;;;;;4.70;4.07;;;;;;;19.88;56.06;100279.72;694468;28;45258;-67
2021/08/16 00:57:10;;;;;;;4.75;4.05;;;;;;;19.87;55.66;100273.41;695202;28;8868;-67
2021/08/16 00:57:33;;;;;;;5.35;4.20;;;;;;;19.87;55.71;100272.59;694601;28;22200;-66
2021/08/16 00:57:54;;;;;;;5.30;4.13;;;;;;;19.87;55.79;100272.59;693469;28;46298;-67
2021/08/16 00:58:15;;;;;;;5.57;4.10;;;;;;;19.85;55.98;100277.50;693856;28;46303;-66
2021/08/16 00:58:37;;;;;;;4.45;4.05;;;;;;;19.83;55.79;100276.88;694646;28;47239;-66
2021/08/16 00:58:59;;;;;;;4.57;4.05;;;;;;;19.80;55.99;100273.56;695296;28;22404;-67
2021/08/16 00:59:21;;;;;;;6.30;4.13;;;;;;;19.82;56.13;100275.25;694135;28;44292;-67
2021/08/16 00:59:42;;;;;;;4.78;4.35;;;;;;;19.80;56.27;100279.06;694610;28;43384;-67
2021/08/16 01:00:06;;;;;;;4.65;4.25;;;;;;;19.80;56.31;100270.84;695165;28;22176;-64
2021/08/16 01:00:27;;;;;;;5.75;4.03;;;;;;;19.79;56.26;100274.66;693724;28;68431;-66
2021/08/16 01:00:52;;;;;;;5.88;4.28;;;;;;;19.79;56.12;100274.66;696112;28;1554;-67
2021/08/16 01:01:14;;;;;;;6.20;4.80;;;;;;;19.77;56.16;100276.81;692028;28;111864;-68
2021/08/16 01:01:35;;;;;;;6.38;4.28;;;;;;;19.77;56.23;100276.81;694801;28;46374;-68
2021/08/16 01:01:56;;;;;;;6.00;3.78;;;;;;;19.77;56.34;100276.00;694692;28;22568;-67
2021/08/16 01:02:17;;;;;;;6.40;3.97;;;;;;;19.74;56.26;100268.25;695017;28;23467;-67
2021/08/16 01:02:41;;;;;;;7.68;4.20;;;;;;;19.75;56.18;100278.13;694362;28;22584;-67
2021/08/16 01:03:02;;;;;;;6.93;4.10;;;;;;;19.74;56.26;100282.75;692768;28;90195;-67
2021/08/16 01:03:23;;;;;;;6.95;4.03;;;;;;;19.74;56.01;100273.72;694883;28;23465;-67
2021/08/16 01:03:44;;;;;;;5.63;3.60;;;;;;;19.74;56.02;100273.72;694768;28;22406;-66
2021/08/16 01:04:07;;;;;;;4.30;3.90;;;;;;;19.70;56.04;100273.41;694616;28;21263;-65
2021/08/16 01:04:28;;;;;;;5.93;4.00;;;;;;;19.72;56.11;100276.72;693470;28;70245;-66
2021/08/16 01:04:49;;;;;;;7.40;4.05;;;;;;;19.72;56.11;100273.16;694569;28;44469;-66
2021/08/16 01:05:13;;;;;;;6.60;3.97;;;;;;;19.71;56.19;100279.69;695336;28;22397;-66
2021/08/16 01:05:35;;;;;;;5.35;4.03;;;;;;;19.71;56.29;100276.97;692431;28;87725;-67
2021/08/16 01:05:56;;;;;;;5.57;4.20;;;;;;;19.71;56.40;100268.75;696080;28;1907;-67
2021/08/16 01:06:18;;;;;;;4.68;4.10;;;;;;;19.70;56.39;100272.53;694135;28;46695;-65
2021/08/16 01:06:40;;;;;;;4.32;3.92;;;;;;;19.71;56.45;100274.22;695420;28;17750;-67
2021/08/16 01:07:03;;;;;;;4.63;4.13;;;;;;;19.67;56.46;100265.69;694528;28;45266;-66
2021/08/16 01:07:24;;;;;;;5.38;3.80;;;;;;;19.69;56.43;100270.91;692457;28;92347;-64
2021/08/16 01:07:47;;;;;;;5.65;4.15;;;;;;;19.68;56.78;100271.97;692705;28;46414;-66
2021/08/16 01:08:08;;;;;;;6.10;4.53;;;;;;;19.68;56.57;100272.78;692352;28;92275;-66
2021/08/16 01:08:30;;;;;;;4.63;3.90;;;;;;;19.69;56.44;100269.00;694989;28;22440;-66
2021/08/16 01:08:54;;;;;;;4.25;3.80;;;;;;;19.70;56.42;100273.41;694753;28;37672;-67
2021/08/16 01:09:17;;;;;;;5.10;3.93;;;;;;;19.69;56.56;100265.44;695667;28;1491;-67
2021/08/16 01:09:39;;;;;;;4.53;4.00;;;;;;;19.70;56.40;100269.81;695960;28;921;-67
2021/08/16 01:10:01;;;;;;;4.45;3.95;;;;;;;19.70;56.46;100264.31;695511;28;18034;-66
2021/08/16 01:10:22;;;;;;;4.43;4.03;;;;;;;19.70;56.34;100270.66;694438;28;46333;-66
2021/08/16 01:10:44;;;;;;;4.22;3.83;;;;;;;19.67;56.43;100264.81;695543;28;21205;-67
2021/08/16 01:11:05;;;;;;;4.97;3.80;;;;;;;19.68;56.38;100261.84;694335;28;45335;-67
2021/08/16 01:11:26;;;;;;;5.30;4.15;;;;;;;19.70;56.44;100270.66;695772;28;14472;-67
2021/08/16 01:11:48;;;;;;;5.35;3.92;;;;;;;19.71;56.41;100268.75;694404;28;43954;-67
2021/08/16 01:12:10;;;;;;;4.68;4.10;;;;;;;19.69;56.41;100265.44;695395;28;17343;-67
2021/08/16 01:12:32;;;;;;;5.88;4.22;;;;;;;19.68;56.57;100259.09;693913;28;46450;-67
2021/08/16 01:12:53;;;;;;;4.55;4.05;;;;;;;19.69;56.56;100259.94;695055;28;38840;-68
2021/08/16 01:13:15;;;;;;;4.32;3.92;;;;;;;19.66;56.73;100261.28;695631;28;10834;-66
2021/08/16 01:13:37;;;;;;;4.40;3.90;;;;;;;19.67;56.53;100260.19;696033;28;983;-68
2021/08/16 01:13:58;;;;;;;4.30;3.58;;;;;;;19.68;56.63;100261.03;695512;28;22480;-66
2021/08/16 01:14:19;;;;;;;5.03;4.00;;;;;;;19.68;56.64;100259.09;695184;28;15495;-69
2021/08/16 01:14:41;;;;;;;4.60;4.20;;;;;;;19.67;56.60;100259.34;696151;28;850;-67
2021/08/16 01:15:05;;;;;;;4.75;4.13;;;;;;;19.66;56.80;100260.44;694329;28;44397;-67
2021/08/16 01:15:28;;;;;;;5.38;4.20;;;;;;;19.65;56.81;100256.84;695454;28;14214;-67
2021/08/16 01:15:53;;;;;;;6.03;4.10;;;;;;;19.65;56.87;100256.84;692535;28;66084;-67
2021/08/16 01:16:20;;;;;;;4.10;3.80;;;;;;;19.66;56.62;100261.28;693969;28;61496;-67
2021/08/16 01:16:42;;;;;;;4.68;4.18;;;;;;;19.63;56.73;100261.75;694208;28;40153;-67
2021/08/16 01:17:03;;;;;;;4.53;4.13;;;;;;;19.63;56.81;100259.84;694704;28;13935;-67
2021/08/16 01:17:24;;;;;;;4.40;4.00;;;;;;;19.61;56.75;100252.97;694387;28;46440;-64
2021/08/16 01:17:47;;;;;;;4.47;4.07;;;;;;;19.59;57.05;100253.22;695028;28;1706;-65
2021/08/16 01:18:08;;;;;;;4.50;4.00;;;;;;;19.59;56.94;100258.69;694132;28;46450;-65
2021/08/16 01:18:32;;;;;;;5.40;4.05;;;;;;;19.61;57.07;100258.44;694762;28;42854;-67
2021/08/16 01:18:53;;;;;;;4.82;3.90;;;;;;;19.62;56.92;100257.34;692570;28;100899;-67
2021/08/16 01:19:16;;;;;;;4.45;4.05;;;;;;;19.63;57.13;100259.03;695729;28;5811;-65
2021/08/16 01:19:37;;;;;;;4.70;4.00;;;;;;;19.63;57.11;100259.84;693623;28;68803;-68
2021/08/16 01:19:59;;;;;;;4.72;4.18;;;;;;;19.65;57.12;100256.84;695282;28;13221;-67
2021/08/16 01:20:21;;;;;;;4.75;4.30;;;;;;;19.68;57.07;100261.84;695726;28;934;-67
2021/08/16 01:20:42;;;;;;;4.68;4.20;;;;;;;19.67;57.03;100254.72;695343;28;15065;-67
2021/08/16 01:21:06;;;;;;;4.28;3.88;;;;;;;19.66;57.06;100254.97;693511;28;45235;-67
2021/08/16 01:21:27;;;;;;;7.15;4.10;;;;;;;19.66;57.18;100255.78;692635;28;66720;-66
2021/08/16 01:21:49;;;;;;;4.70;4.07;;;;;;;19.66;57.21;100261.28;694606;28;22559;-65
2021/08/16 01:22:12;;;;;;;4.97;4.20;;;;;;;19.65;57.28;100254.13;693836;28;31351;-67
2021/08/16 01:22:34;;;;;;;4.97;4.10;;;;;;;19.65;57.26;100254.13;693335;28;69778;-67
2021/08/16 01:22:56;;;;;;;4.60;4.05;;;;;;;19.65;57.17;100258.78;693758;28;44386;-67
2021/08/16 01:23:18;;;;;;;4.72;4.20;;;;;;;19.62;57.08;100258.19;692172;28;67436;-67
2021/08/16 01:23:40;;;;;;;4.22;3.92;;;;;;;19.63;56.76;100259.03;695228;28;21552;-69
2021/08/16 01:24:01;;;;;;;5.43;4.20;;;;;;;19.60;56.66;100257.59;694520;28;45054;-67
2021/08/16 01:24:22;;;;;;;5.13;4.20;;;;;;;19.62;56.86;100257.34;695372;28;21985;-65
2021/08/16 01:24:43;;;;;;;4.57;4.13;;;;;;;19.58;56.67;100256.22;696240;28;952;-67
2021/08/16 01:25:07;;;;;;;4.60;4.03;;;;;;;19.59;56.42;100252.38;690393;28;22406;-67
2021/08/16 01:25:29;;;;;;;5.97;4.00;;;;;;;19.56;56.33;100253.72;692051;28;114775;-67
2021/08/16 01:25:50;;;;;;;4.75;3.90;;;;;;;19.56;56.46;100256.47;695047;28;23452;-68
2021/08/16 01:26:12;;;;;;;4.20;3.80;;;;;;;19.56;56.63;100263.81;695640;28;14230;-67
2021/08/16 01:26:35;;;;;;;4.53;3.95;;;;;;;19.54;56.81;100255.84;693957;28;46305;-67
2021/08/16 01:27:03;;;;;;;4.45;4.05;;;;;;;19.52;56.77;100249.81;692775;28;92286;-67
2021/08/16 01:27:24;;;;;;;5.32;4.00;;;;;;;19.50;56.81;100253.84;691086;28;137866;-67
2021/08/16 01:27:47;;;;;;;5.88;4.07;;;;;;;19.48;56.52;100248.63;693578;28;23554;-67
2021/08/16 01:28:08;;;;;;;4.90;3.90;;;;;;;19.48;56.49;100253.28;693447;28;59112;-66
2021/08/16 01:28:29;;;;;;;4.13;3.72;;;;;;;19.48;56.59;100250.53;695370;28;23382;-67
2021/08/16 01:28:50;;;;;;;4.03;3.72;;;;;;;19.46;56.31;100248.06;695218;28;3104;-66
2021/08/16 01:29:16;;;;;;;4.05;3.72;;;;;;;19.45;56.64;100254.59;695557;28;12447;-68
2021/08/16 01:29:37;;;;;;;5.68;3.70;;;;;;;19.44;56.52;100248.31;690668;28;136438;-67
2021/08/16 01:30:00;;;;;;;4.18;3.78;;;;;;;19.44;56.67;100248.31;694765;28;12461;-65
2021/08/16 01:30:21;;;;;;;4.38;3.97;;;;;;;19.43;56.67;100246.63;693369;28;68130;-67
2021/08/16 01:30:44;;;;;;;4.53;4.10;;;;;;;19.41;56.80;100246.06;696107;28;924;-67
2021/08/16 01:31:07;;;;;;;4.70;4.30;;;;;;;19.43;56.90;100245.81;695044;28;1633;-67
2021/08/16 01:31:28;;;;;;;4.68;3.97;;;;;;;19.41;56.94;100246.06;694183;28;46465;-66
2021/08/16 01:31:50;;;;;;;5.07;3.83;;;;;;;19.41;56.87;100247.97;695542;28;1553;-67
2021/08/16 01:32:12;;;;;;;4.30;3.85;;;;;;;19.41;56.94;100251.53;696099;28;2318;-67
2021/08/16 01:32:33;;;;;;;4.97;3.97;;;;;;;19.39;56.87;100245.50;694475;28;35910;-67
2021/08/16 01:32:54;;;;;;;4.88;3.70;;;;;;;19.40;57.09;100249.91;695385;28;9380;-66
2021/08/16 01:33:19;;;;;;;4.60;3.90;;;;;;;19.39;57.18;100245.50;694683;28;14253;-65
2021/08/16 01:33:41;;;;;;;5.53;3.85;;;;;;;19.39;57.32;100245.50;694888;28;22201;-67
2021/08/16 01:34:02;;;;;;;4.65;3.97;;;;;;;19.39;57.37;100244.66;694344;28;46679;-68
2021/08/16 01:34:23;;;;;;;5.38;4.28;;;;;;;19.38;57.60;100246.56;695792;28;7934;-67
2021/08/16 01:34:44;;;;;;;4.30;4.00;;;;;;;19.39;57.34;100247.41;695252;28;16350;-66
2021/08/16 01:35:07;;;;;;;4.20;3.90;;;;;;;19.38;57.44;100249.28;695220;28;22430;-68
2021/08/16 01:35:28;;;;;;;4.53;4.10;;;;;;;19.37;57.47;100244.91;692717;28;90304;-68
2021/08/16 01:35:50;;;;;;;6.05;4.13;;;;;;;19.37;57.21;100241.31;694309;28;46217;-68
2021/08/16 01:36:11;;;;;;;4.38;3.90;;;;;;;19.34;57.19;100237.19;695241;28;23498;-67
2021/08/16 01:36:33;;;;;;;5.78;4.13;;;;;;;19.34;57.14;100244.56;695237;28;20567;-68
2021/08/16 01:36:54;;;;;;;5.30;4.18;;;;;;;19.33;57.14;100242.91;694236;28;47233;-67
2021/08/16 01:37:15;;;;;;;4.30;3.90;;;;;;;19.32;57.49;100238.50;694678;28;22405;-67
2021/08/16 01:37:36;;;;;;;7.03;4.30;;;;;;;19.33;57.19;100237.44;694608;28;23297;-64
2021/08/16 01:37:58;;;;;;;4.32;3.83;;;;;;;19.34;57.34;100244.56;694070;28;17225;-67
2021/08/16 01:38:19;;;;;;;4.95;3.65;;;;;;;19.34;57.32;100233.59;693881;28;45269;-67
2021/08/16 01:38:43;;;;;;;5.38;3.88;;;;;;;19.33;56.77;100238.25;695141;28;22413;-67
2021/08/16 01:39:04;;;;;;;6.38;3.92;;;;;;;19.36;56.75;100232.28;693365;28;73465;-67
2021/08/16 01:39:26;;;;;;;6.82;3.78;;;;;;;19.36;56.71;100240.50;695364;28;23621;-67
2021/08/16 01:39:47;;;;;;;5.00;3.97;;;;;;;19.36;56.61;100232.28;694473;28;34881;-68
2021/08/16 01:40:13;;;;;;;4.90;3.85;;;;;;;19.38;56.47;100234.78;695064;28;22498;-65
2021/08/16 01:40:34;;;;;;;5.00;4.32;;;;;;;19.39;56.43;100239.19;691741;28;112484;-66
2021/08/16 01:40:55;;;;;;;4.70;3.70;;;;;;;19.40;56.13;100227.13;695126;28;23421;-67
2021/08/16 01:41:17;;;;;;;4.28;3.63;;;;;;;19.40;55.91;100238.94;694987;28;23504;-67
2021/08/16 01:41:39;;;;;;;5.20;3.50;;;;;;;19.40;55.74;100233.47;694011;28;46265;-67
2021/08/16 01:42:01;;;;;;;4.03;3.53;;;;;;;19.39;55.82;100226.31;694164;28;46490;-65
2021/08/16 01:42:22;;;;;;;5.50;3.40;;;;;;;19.43;55.92;100232.94;695228;28;21492;-66
2021/08/16 01:42:45;;;;;;;4.32;3.60;;;;;;;19.43;55.60;100232.94;694412;28;45706;-66